Terminal Aerodrome Forecast
Issued by NWS

Home | Current Version | Previous Version | Text Only | Print | Product List | Glossary On
Versions: 1 2 3 4 5 6 7 8 9 10 11 12 13 14 15 16 17 18 19 20 21 22 23 24 25 26 27 28 29 30 31 32 33 34 35 36 37 38 39 40 41 42 43 44 45 46 47 48 49 50
732
FTUS43 KMKX 210526
TAFENW
TAF
KENW 210526Z 2106/2206 11004KT 1/4SM -DZ FG OVC002
     FM211300 16005KT 1/4SM FG OVC004
     FM211700 17008KT 1SM BR OVC015
     FM211800 17008KT 2SM BR OVC015
     FM212200 18007KT P6SM OVC035
     FM220500 VRB03KT 2SM BR BKN060=

USA.gov is the U.S. government's official web portal to all federal, state and local government web resources and services.